PWSweather.com
Personal Weather Stations
Station Observations
WAIROAHB
Wairoa, Northern Hawkes Bay -NZ 4108

WairoaNorthern Hawkes Bay -NZ 4108

Lat: -39.04516934, Lon: 177.4263989

Elevation: 156

Station Type: WS3083

http://wairoa.net/weather/index.htm

High Low Average
Temperature 91.8°F33.2°C 61.9°F16.6°C 77.5°F25.3°C
Dew Point 67.1°F19.5°C 40.5°F4.7°C 58.4°F14.7°C
Winds 13.6 mph 21.9 kmh Calm Calm 4.0 mph WSW6.4 kmh WSW
Wind Gusts 16.8 mph27.0 kmh 1.6 mph2.6 kmh 8.0 mph12.9 kmh
Humidity 95% 24% 56%
Pressure 29.90 in1012.5 mb 29.82 in1009.8 mb -
Precipitation 0.00 in0.0 mm - -
Hour Temp Dew Point Humidity Winds Wind Gusts Pressure Precip Precip Rate Daily Precip Total
12:00 AM 69.1°F20.6°C 64.4°F18.0°C 85% 3.8 mph NW6.1 kmh NW 7.6 mph12.2 kmh 29.90 in1012.5 mb 0.00 in0.0 mm 0.00 in0.0 mm 0.00 in0.0 mm
12:10 AM 68.7°F20.4°C 64.1°F17.8°C 85% 3.8 mph NNW6.1 kmh NNW 7.6 mph12.2 kmh 29.89 in1012.2 mb 0.00 in0.0 mm 0.00 in0.0 mm 0.00 in0.0 mm
12:20 AM 68.0°F20.0°C 64.0°F17.8°C 87% 3.8 mph N6.1 kmh N 6.9 mph11.1 kmh 29.89 in1012.2 mb 0.00 in0.0 mm 0.00 in0.0 mm 0.00 in0.0 mm
12:30 AM 67.6°F19.8°C 64.3°F17.9°C 89% 4.5 mph NNW7.2 kmh NNW 6.9 mph11.1 kmh 29.89 in1012.2 mb 0.00 in0.0 mm 0.00 in0.0 mm 0.00 in0.0 mm
12:40 AM 67.1°F19.5°C 64.1°F17.8°C 90% 3.1 mph NNW5.0 kmh NNW 6.9 mph11.1 kmh 29.88 in1011.9 mb 0.00 in0.0 mm 0.00 in0.0 mm 0.00 in0.0 mm
12:50 AM 66.7°F19.3°C 63.7°F17.6°C 90% 3.8 mph NNW6.1 kmh NNW 6.9 mph11.1 kmh 29.88 in1011.9 mb 0.00 in0.0 mm 0.00 in0.0 mm 0.00 in0.0 mm
01:00 AM 66.6°F19.2°C 63.9°F17.7°C 91% 3.8 mph N6.1 kmh N 6.9 mph11.1 kmh 29.87 in1011.5 mb 0.00 in0.0 mm 0.00 in0.0 mm 0.00 in0.0 mm
01:10 AM 66.4°F19.1°C 63.7°F17.6°C 91% 4.5 mph N7.2 kmh N 6.9 mph11.1 kmh 29.87 in1011.5 mb 0.00 in0.0 mm 0.00 in0.0 mm 0.00 in0.0 mm
01:20 AM 66.4°F19.1°C 63.7°F17.6°C 91% 4.5 mph NNW7.2 kmh NNW 7.6 mph12.2 kmh 29.87 in1011.5 mb 0.00 in0.0 mm 0.00 in0.0 mm 0.00 in0.0 mm
01:30 AM 66.2°F19.0°C 63.5°F17.5°C 91% 3.1 mph NNW5.0 kmh NNW 7.6 mph12.2 kmh 29.86 in1011.2 mb 0.00 in0.0 mm 0.00 in0.0 mm 0.00 in0.0 mm
01:40 AM 65.8°F18.8°C 63.5°F17.5°C 92% 2.2 mph N3.5 kmh N 6.9 mph11.1 kmh 29.86 in1011.2 mb 0.00 in0.0 mm 0.00 in0.0 mm 0.00 in0.0 mm
01:50 AM 65.5°F18.6°C 63.4°F17.4°C 93% 3.8 mph NNW6.1 kmh NNW 5.4 mph8.7 kmh 29.86 in1011.2 mb 0.00 in0.0 mm 0.00 in0.0 mm 0.00 in0.0 mm
02:00 AM 65.3°F18.5°C 63.2°F17.3°C 93% 3.8 mph NNW6.1 kmh NNW 8.3 mph13.4 kmh 29.85 in1010.8 mb 0.00 in0.0 mm 0.00 in0.0 mm 0.00 in0.0 mm
02:10 AM 65.3°F18.5°C 63.2°F17.3°C 93% 2.2 mph NNW3.5 kmh NNW 6.9 mph11.1 kmh 29.85 in1010.8 mb 0.00 in0.0 mm 0.00 in0.0 mm 0.00 in0.0 mm
02:20 AM 65.3°F18.5°C 62.9°F17.2°C 92% 4.5 mph N7.2 kmh N 6.9 mph11.1 kmh 29.84 in1010.5 mb 0.00 in0.0 mm 0.00 in0.0 mm 0.00 in0.0 mm
02:30 AM 65.5°F18.6°C 62.8°F17.1°C 91% 4.5 mph N7.2 kmh N 7.6 mph12.2 kmh 29.84 in1010.5 mb 0.00 in0.0 mm 0.00 in0.0 mm 0.00 in0.0 mm
02:40 AM 65.7°F18.7°C 62.7°F17.1°C 90% 4.5 mph N7.2 kmh N 7.6 mph12.2 kmh 29.84 in1010.5 mb 0.00 in0.0 mm 0.00 in0.0 mm 0.00 in0.0 mm
02:50 AM 65.3°F18.5°C 62.3°F16.8°C 90% 3.1 mph N5.0 kmh N 6.9 mph11.1 kmh 29.84 in1010.5 mb 0.00 in0.0 mm 0.00 in0.0 mm 0.00 in0.0 mm
03:00 AM 65.3°F18.5°C 62.3°F16.8°C 90% 7.6 mph NNW12.2 kmh NNW 10.7 mph17.2 kmh 29.84 in1010.5 mb 0.00 in0.0 mm 0.00 in0.0 mm 0.00 in0.0 mm
03:10 AM 64.8°F18.2°C 61.8°F16.6°C 90% 4.5 mph NW7.2 kmh NW 10.7 mph17.2 kmh 29.83 in1010.2 mb 0.00 in0.0 mm 0.00 in0.0 mm 0.00 in0.0 mm
03:20 AM 64.6°F18.1°C 61.9°F16.6°C 91% 5.4 mph NW8.7 kmh NW 9.2 mph14.8 kmh 29.83 in1010.2 mb 0.00 in0.0 mm 0.00 in0.0 mm 0.00 in0.0 mm
03:30 AM 64.0°F17.8°C 61.4°F16.3°C 91% 2.2 mph NW3.5 kmh NW 7.6 mph12.2 kmh 29.83 in1010.2 mb 0.00 in0.0 mm 0.00 in0.0 mm 0.00 in0.0 mm
03:40 AM 63.7°F17.6°C 61.3°F16.3°C 92% 3.1 mph NNW5.0 kmh NNW 6.9 mph11.1 kmh 29.83 in1010.2 mb 0.00 in0.0 mm 0.00 in0.0 mm 0.00 in0.0 mm
03:50 AM 63.3°F17.4°C 61.0°F16.1°C 92% 3.1 mph N5.0 kmh N 6.0 mph9.7 kmh 29.83 in1010.2 mb 0.00 in0.0 mm 0.00 in0.0 mm 0.00 in0.0 mm
04:00 AM 63.0°F17.2°C 60.9°F16.1°C 93% 6.0 mph NW9.7 kmh NW 9.2 mph14.8 kmh 29.83 in1010.2 mb 0.00 in0.0 mm 0.00 in0.0 mm 0.00 in0.0 mm
04:10 AM 63.0°F17.2°C 60.9°F16.1°C 93% 4.5 mph N7.2 kmh N 9.2 mph14.8 kmh 29.83 in1010.2 mb 0.00 in0.0 mm 0.00 in0.0 mm 0.00 in0.0 mm
04:20 AM 62.8°F17.1°C 60.7°F15.9°C 93% 3.8 mph N6.1 kmh N 7.6 mph12.2 kmh 29.83 in1010.2 mb 0.00 in0.0 mm 0.00 in0.0 mm 0.00 in0.0 mm
04:30 AM 62.4°F16.9°C 60.7°F15.9°C 94% 3.1 mph NW5.0 kmh NW 6.9 mph11.1 kmh 29.83 in1010.2 mb 0.00 in0.0 mm 0.00 in0.0 mm 0.00 in0.0 mm
04:40 AM 62.1°F16.7°C 60.3°F15.7°C 94% 3.8 mph NNW6.1 kmh NNW 6.9 mph11.1 kmh 29.83 in1010.2 mb 0.00 in0.0 mm 0.00 in0.0 mm 0.00 in0.0 mm
04:50 AM 61.9°F16.6°C 60.5°F15.8°C 95% 4.5 mph NNW7.2 kmh NNW 7.6 mph12.2 kmh 29.83 in1010.2 mb 0.00 in0.0 mm 0.00 in0.0 mm 0.00 in0.0 mm
05:00 AM 61.9°F16.6°C 60.5°F15.8°C 95% 3.1 mph NNW5.0 kmh NNW 6.9 mph11.1 kmh 29.83 in1010.2 mb 0.00 in0.0 mm 0.00 in0.0 mm 0.00 in0.0 mm
05:10 AM 62.2°F16.8°C 60.5°F15.8°C 94% 3.8 mph NW6.1 kmh NW 6.0 mph9.7 kmh 29.83 in1010.2 mb 0.00 in0.0 mm 0.00 in0.0 mm 0.00 in0.0 mm
05:20 AM 62.8°F17.1°C 60.7°F15.9°C 93% 6.9 mph NW11.1 kmh NW 9.8 mph15.8 kmh 29.83 in1010.2 mb 0.00 in0.0 mm 0.00 in0.0 mm 0.00 in0.0 mm
05:30 AM 63.3°F17.4°C 60.7°F15.9°C 91% 3.8 mph NW6.1 kmh NW 9.2 mph14.8 kmh 29.83 in1010.2 mb 0.00 in0.0 mm 0.00 in0.0 mm 0.00 in0.0 mm
05:40 AM 64.0°F17.8°C 60.8°F16.0°C 89% 6.0 mph NNW9.7 kmh NNW 7.6 mph12.2 kmh 29.83 in1010.2 mb 0.00 in0.0 mm 0.00 in0.0 mm 0.00 in0.0 mm
05:50 AM 64.8°F18.2°C 61.1°F16.2°C 88% 3.8 mph NNW6.1 kmh NNW 8.3 mph13.4 kmh 29.84 in1010.5 mb 0.00 in0.0 mm 0.00 in0.0 mm 0.00 in0.0 mm
06:00 AM 65.7°F18.7°C 61.4°F16.3°C 86% 4.5 mph NNW7.2 kmh NNW 7.6 mph12.2 kmh 29.84 in1010.5 mb 0.00 in0.0 mm 0.00 in0.0 mm 0.00 in0.0 mm
06:10 AM 66.2°F19.0°C 61.2°F16.2°C 84% 5.4 mph NNW8.7 kmh NNW 9.8 mph15.8 kmh 29.84 in1010.5 mb 0.00 in0.0 mm 0.00 in0.0 mm 0.00 in0.0 mm
06:20 AM 66.9°F19.4°C 61.3°F16.3°C 82% 5.4 mph NNW8.7 kmh NNW 8.3 mph13.4 kmh 29.84 in1010.5 mb 0.00 in0.0 mm 0.00 in0.0 mm 0.00 in0.0 mm
06:30 AM 67.6°F19.8°C 61.6°F16.4°C 81% 6.0 mph NW9.7 kmh NW 8.3 mph13.4 kmh 29.84 in1010.5 mb 0.00 in0.0 mm 0.00 in0.0 mm 0.00 in0.0 mm
06:40 AM 68.7°F20.4°C 62.0°F16.7°C 79% 5.4 mph NW8.7 kmh NW 9.8 mph15.8 kmh 29.84 in1010.5 mb 0.00 in0.0 mm 0.00 in0.0 mm 0.00 in0.0 mm
06:50 AM 69.3°F20.7°C 61.4°F16.3°C 76% 5.4 mph NW8.7 kmh NW 7.6 mph12.2 kmh 29.84 in1010.5 mb 0.00 in0.0 mm 0.00 in0.0 mm 0.00 in0.0 mm
07:00 AM 70.9°F21.6°C 61.8°F16.6°C 73% 3.8 mph NW6.1 kmh NW 6.9 mph11.1 kmh 29.84 in1010.5 mb 0.00 in0.0 mm 0.00 in0.0 mm 0.00 in0.0 mm
07:10 AM 72.1°F22.3°C 61.0°F16.1°C 68% 2.2 mph NNW3.5 kmh NNW 6.0 mph9.7 kmh 29.84 in1010.5 mb 0.00 in0.0 mm 0.00 in0.0 mm 0.00 in0.0 mm
07:20 AM 72.7°F22.6°C 59.8°F15.4°C 64% 3.8 mph NNW6.1 kmh NNW 7.6 mph12.2 kmh 29.84 in1010.5 mb 0.00 in0.0 mm 0.00 in0.0 mm 0.00 in0.0 mm
07:30 AM 74.1°F23.4°C 61.6°F16.4°C 65% 1.6 mph NW2.6 kmh NW 6.0 mph9.7 kmh 29.85 in1010.8 mb 0.00 in0.0 mm 0.00 in0.0 mm 0.00 in0.0 mm
07:40 AM 75.6°F24.2°C 59.8°F15.4°C 58% 3.1 mph NW5.0 kmh NW 6.9 mph11.1 kmh 29.84 in1010.5 mb 0.00 in0.0 mm 0.00 in0.0 mm 0.00 in0.0 mm
07:50 AM 75.4°F24.1°C 58.6°F14.8°C 56% 3.8 mph NW6.1 kmh NW 8.3 mph13.4 kmh 29.84 in1010.5 mb 0.00 in0.0 mm 0.00 in0.0 mm 0.00 in0.0 mm
08:00 AM 77.2°F25.1°C 58.2°F14.6°C 52% 3.1 mph N5.0 kmh N 7.6 mph12.2 kmh 29.84 in1010.5 mb 0.00 in0.0 mm 0.00 in0.0 mm 0.00 in0.0 mm
08:10 AM 77.9°F25.5°C 57.2°F14.0°C 49% 4.5 mph N7.2 kmh N 6.9 mph11.1 kmh 29.84 in1010.5 mb 0.00 in0.0 mm 0.00 in0.0 mm 0.00 in0.0 mm
08:20 AM 79.3°F26.3°C 59.1°F15.1°C 50% 6.0 mph N9.7 kmh N 8.3 mph13.4 kmh 29.84 in1010.5 mb 0.00 in0.0 mm 0.00 in0.0 mm 0.00 in0.0 mm
08:30 AM 78.8°F26.0°C 59.2°F15.1°C 51% 3.8 mph NNW6.1 kmh NNW 9.2 mph14.8 kmh 29.84 in1010.5 mb 0.00 in0.0 mm 0.00 in0.0 mm 0.00 in0.0 mm
08:40 AM 79.9°F26.6°C 60.2°F15.7°C 51% 3.1 mph NNW5.0 kmh NNW 7.6 mph12.2 kmh 29.84 in1010.5 mb 0.00 in0.0 mm 0.00 in0.0 mm 0.00 in0.0 mm
08:50 AM 81.7°F27.6°C 58.9°F14.9°C 46% 4.5 mph N7.2 kmh N 6.9 mph11.1 kmh 29.84 in1010.5 mb 0.00 in0.0 mm 0.00 in0.0 mm 0.00 in0.0 mm
09:00 AM 82.8°F28.2°C 59.9°F15.5°C 46% 3.1 mph N5.0 kmh N 7.6 mph12.2 kmh 29.84 in1010.5 mb 0.00 in0.0 mm 0.00 in0.0 mm 0.00 in0.0 mm
09:10 AM 83.8°F28.8°C 60.3°F15.7°C 45% 2.2 mph NW3.5 kmh NW 5.4 mph8.7 kmh 29.84 in1010.5 mb 0.00 in0.0 mm 0.00 in0.0 mm 0.00 in0.0 mm
09:20 AM 84.6°F29.2°C 54.7°F12.6°C 36% 3.1 mph NW5.0 kmh NW 6.0 mph9.7 kmh 29.84 in1010.5 mb 0.00 in0.0 mm 0.00 in0.0 mm 0.00 in0.0 mm
09:30 AM 86.4°F30.2°C 57.1°F13.9°C 37% 1.6 mph NW2.6 kmh NW 6.0 mph9.7 kmh 29.84 in1010.5 mb 0.00 in0.0 mm 0.00 in0.0 mm 0.00 in0.0 mm
09:40 AM 88.0°F31.1°C 55.3°F12.9°C 33% 0.7 mph W1.1 kmh W 4.5 mph7.2 kmh 29.84 in1010.5 mb 0.00 in0.0 mm 0.00 in0.0 mm 0.00 in0.0 mm
09:50 AM 90.1°F32.3°C 52.7°F11.5°C 28% 0.7 mph NE1.1 kmh NE 3.8 mph6.1 kmh 29.84 in1010.5 mb 0.00 in0.0 mm 0.00 in0.0 mm 0.00 in0.0 mm
10:00 AM 89.8°F32.1°C 59.3°F15.2°C 36% 5.4 mph S8.7 kmh S 6.0 mph9.7 kmh 29.85 in1010.8 mb 0.00 in0.0 mm 0.00 in0.0 mm 0.00 in0.0 mm
10:10 AM 88.7°F31.5°C 56.8°F13.8°C 34% Calm Calm 6.0 mph9.7 kmh 29.85 in1010.8 mb 0.00 in0.0 mm 0.00 in0.0 mm 0.00 in0.0 mm
10:20 AM 88.7°F31.5°C 56.0°F13.3°C 33% 3.8 mph NW6.1 kmh NW 6.9 mph11.1 kmh 29.85 in1010.8 mb 0.00 in0.0 mm 0.00 in0.0 mm 0.00 in0.0 mm
10:30 AM 87.3°F30.7°C 57.1°F13.9°C 36% 5.4 mph NE8.7 kmh NE 8.3 mph13.4 kmh 29.86 in1011.2 mb 0.00 in0.0 mm 0.00 in0.0 mm 0.00 in0.0 mm
10:40 AM 85.6°F29.8°C 57.9°F14.4°C 39% 6.9 mph W11.1 kmh W 10.7 mph17.2 kmh 29.86 in1011.2 mb 0.00 in0.0 mm 0.00 in0.0 mm 0.00 in0.0 mm
10:50 AM 85.3°F29.6°C 54.6°F12.6°C 35% 6.9 mph W11.1 kmh W 12.1 mph19.5 kmh 29.86 in1011.2 mb 0.00 in0.0 mm 0.00 in0.0 mm 0.00 in0.0 mm
11:00 AM 84.4°F29.1°C 60.8°F16.0°C 45% 8.3 mph WNW13.4 kmh WNW 9.8 mph15.8 kmh 29.86 in1011.2 mb 0.00 in0.0 mm 0.00 in0.0 mm 0.00 in0.0 mm
11:10 AM 84.0°F28.9°C 57.1°F13.9°C 40% 6.9 mph W11.1 kmh W 13.6 mph21.9 kmh 29.86 in1011.2 mb 0.00 in0.0 mm 0.00 in0.0 mm 0.00 in0.0 mm
11:20 AM 83.1°F28.4°C 57.7°F14.3°C 42% 5.4 mph WNW8.7 kmh WNW 13.6 mph21.9 kmh 29.86 in1011.2 mb 0.00 in0.0 mm 0.00 in0.0 mm 0.00 in0.0 mm
11:30 AM 82.2°F27.9°C 58.8°F14.9°C 45% 9.8 mph NW15.8 kmh NW 13.0 mph20.9 kmh 29.86 in1011.2 mb 0.00 in0.0 mm 0.00 in0.0 mm 0.00 in0.0 mm
11:40 AM 84.2°F29.0°C 59.3°F15.2°C 43% 8.3 mph WSW13.4 kmh WSW 13.0 mph20.9 kmh 29.86 in1011.2 mb 0.00 in0.0 mm 0.00 in0.0 mm 0.00 in0.0 mm
11:50 AM 83.1°F28.4°C 59.0°F15.0°C 44% 8.3 mph SW13.4 kmh SW 13.6 mph21.9 kmh 29.86 in1011.2 mb 0.00 in0.0 mm 0.00 in0.0 mm 0.00 in0.0 mm
12:00 PM 81.3°F27.4°C 57.4°F14.1°C 44% 13.6 mph WNW21.9 kmh WNW 16.8 mph27.0 kmh 29.86 in1011.2 mb 0.00 in0.0 mm 0.00 in0.0 mm 0.00 in0.0 mm
12:10 PM 81.3°F27.4°C 61.5°F16.4°C 51% 6.0 mph NW9.7 kmh NW 16.8 mph27.0 kmh 29.86 in1011.2 mb 0.00 in0.0 mm 0.00 in0.0 mm 0.00 in0.0 mm
12:20 PM 79.5°F26.4°C 65.4°F18.6°C 62% 4.5 mph SW7.2 kmh SW 14.5 mph23.3 kmh 29.85 in1010.8 mb 0.00 in0.0 mm 0.00 in0.0 mm 0.00 in0.0 mm
12:30 PM 80.1°F26.7°C 66.4°F19.1°C 63% 7.6 mph SE12.2 kmh SE 13.0 mph20.9 kmh 29.85 in1010.8 mb 0.00 in0.0 mm 0.00 in0.0 mm 0.00 in0.0 mm
12:40 PM 80.2°F26.8°C 63.7°F17.6°C 57% 6.0 mph ESE9.7 kmh ESE 12.1 mph19.5 kmh 29.85 in1010.8 mb 0.00 in0.0 mm 0.00 in0.0 mm 0.00 in0.0 mm
12:50 PM 81.3°F27.4°C 63.7°F17.6°C 55% 3.1 mph ESE5.0 kmh ESE 11.4 mph18.3 kmh 29.85 in1010.8 mb 0.00 in0.0 mm 0.00 in0.0 mm 0.00 in0.0 mm
01:00 PM 81.3°F27.4°C 58.0°F14.4°C 45% 6.9 mph SE11.1 kmh SE 13.6 mph21.9 kmh 29.84 in1010.5 mb 0.00 in0.0 mm 0.00 in0.0 mm 0.00 in0.0 mm
01:10 PM 81.3°F27.4°C 57.4°F14.1°C 44% 5.4 mph ENE8.7 kmh ENE 13.0 mph20.9 kmh 29.84 in1010.5 mb 0.00 in0.0 mm 0.00 in0.0 mm 0.00 in0.0 mm
01:20 PM 82.4°F28.0°C 59.0°F15.0°C 45% 4.5 mph SE7.2 kmh SE 9.2 mph14.8 kmh 29.84 in1010.5 mb 0.00 in0.0 mm 0.00 in0.0 mm 0.00 in0.0 mm
01:30 PM 83.1°F28.4°C 57.7°F14.3°C 42% 7.6 mph SE12.2 kmh SE 11.4 mph18.3 kmh 29.84 in1010.5 mb 0.00 in0.0 mm 0.00 in0.0 mm 0.00 in0.0 mm
01:40 PM 83.1°F28.4°C 59.0°F15.0°C 44% 4.5 mph SE7.2 kmh SE 11.4 mph18.3 kmh 29.84 in1010.5 mb 0.00 in0.0 mm 0.00 in0.0 mm 0.00 in0.0 mm
01:50 PM 82.9°F28.3°C 59.5°F15.3°C 45% 6.9 mph SE11.1 kmh SE 10.7 mph17.2 kmh 29.85 in1010.8 mb 0.00 in0.0 mm 0.00 in0.0 mm 0.00 in0.0 mm
02:00 PM 82.9°F28.3°C 57.5°F14.2°C 42% 6.0 mph ESE9.7 kmh ESE 11.4 mph18.3 kmh 29.85 in1010.8 mb 0.00 in0.0 mm 0.00 in0.0 mm 0.00 in0.0 mm
02:10 PM 84.6°F29.2°C 58.3°F14.6°C 41% 5.4 mph SE8.7 kmh SE 10.7 mph17.2 kmh 29.84 in1010.5 mb 0.00 in0.0 mm 0.00 in0.0 mm 0.00 in0.0 mm
02:20 PM 85.6°F29.8°C 59.3°F15.2°C 41% 5.4 mph SE8.7 kmh SE 8.3 mph13.4 kmh 29.84 in1010.5 mb 0.00 in0.0 mm 0.00 in0.0 mm 0.00 in0.0 mm
02:30 PM 87.6°F30.9°C 56.6°F13.7°C 35% 4.5 mph SE7.2 kmh SE 8.3 mph13.4 kmh 29.84 in1010.5 mb 0.00 in0.0 mm 0.00 in0.0 mm 0.00 in0.0 mm
02:40 PM 85.6°F29.8°C 61.3°F16.3°C 44% 6.9 mph SE11.1 kmh SE 13.0 mph20.9 kmh 29.84 in1010.5 mb 0.00 in0.0 mm 0.00 in0.0 mm 0.00 in0.0 mm
02:50 PM 85.5°F29.7°C 61.1°F16.2°C 44% 3.1 mph ESE5.0 kmh ESE 9.2 mph14.8 kmh 29.84 in1010.5 mb 0.00 in0.0 mm 0.00 in0.0 mm 0.00 in0.0 mm
03:00 PM 87.4°F30.8°C 58.0°F14.4°C 37% 2.2 mph SE3.5 kmh SE 6.9 mph11.1 kmh 29.84 in1010.5 mb 0.00 in0.0 mm 0.00 in0.0 mm 0.00 in0.0 mm
03:10 PM 88.5°F31.4°C 55.8°F13.2°C 33% 3.8 mph WNW6.1 kmh WNW 7.6 mph12.2 kmh 29.84 in1010.5 mb 0.00 in0.0 mm 0.00 in0.0 mm 0.00 in0.0 mm
03:20 PM 87.3°F30.7°C 55.5°F13.1°C 34% 3.8 mph SW6.1 kmh SW 8.3 mph13.4 kmh 29.84 in1010.5 mb 0.00 in0.0 mm 0.00 in0.0 mm 0.00 in0.0 mm
03:30 PM 87.4°F30.8°C 55.7°F13.2°C 34% 3.8 mph W6.1 kmh W 8.3 mph13.4 kmh 29.84 in1010.5 mb 0.00 in0.0 mm 0.00 in0.0 mm 0.00 in0.0 mm
03:40 PM 87.3°F30.7°C 55.5°F13.1°C 34% 3.8 mph W6.1 kmh W 8.3 mph13.4 kmh 29.84 in1010.5 mb 0.00 in0.0 mm 0.00 in0.0 mm 0.00 in0.0 mm
03:50 PM 87.4°F30.8°C 58.8°F14.9°C 38% 5.4 mph SSW8.7 kmh SSW 8.3 mph13.4 kmh 29.84 in1010.5 mb 0.00 in0.0 mm 0.00 in0.0 mm 0.00 in0.0 mm
04:00 PM 85.6°F29.8°C 64.9°F18.3°C 50% 5.4 mph NW8.7 kmh NW 9.2 mph14.8 kmh 29.84 in1010.5 mb 0.00 in0.0 mm 0.00 in0.0 mm 0.00 in0.0 mm
04:10 PM 83.8°F28.8°C 66.5°F19.2°C 56% 4.5 mph WSW7.2 kmh WSW 9.2 mph14.8 kmh 29.84 in1010.5 mb 0.00 in0.0 mm 0.00 in0.0 mm 0.00 in0.0 mm
04:20 PM 83.3°F28.5°C 62.8°F17.1°C 50% 5.4 mph WNW8.7 kmh WNW 9.2 mph14.8 kmh 29.83 in1010.2 mb 0.00 in0.0 mm 0.00 in0.0 mm 0.00 in0.0 mm
04:30 PM 83.3°F28.5°C 62.2°F16.8°C 49% 5.4 mph WSW8.7 kmh WSW 7.6 mph12.2 kmh 29.83 in1010.2 mb 0.00 in0.0 mm 0.00 in0.0 mm 0.00 in0.0 mm
04:40 PM 82.2°F27.9°C 64.5°F18.1°C 55% 3.8 mph ESE6.1 kmh ESE 10.7 mph17.2 kmh 29.83 in1010.2 mb 0.00 in0.0 mm 0.00 in0.0 mm 0.00 in0.0 mm
04:50 PM 82.9°F28.3°C 63.6°F17.6°C 52% 4.5 mph SW7.2 kmh SW 7.6 mph12.2 kmh 29.83 in1010.2 mb 0.00 in0.0 mm 0.00 in0.0 mm 0.00 in0.0 mm
05:00 PM 81.3°F27.4°C 67.1°F19.5°C 62% 6.0 mph W9.7 kmh W 12.1 mph19.5 kmh 29.83 in1010.2 mb 0.00 in0.0 mm 0.00 in0.0 mm 0.00 in0.0 mm
05:10 PM 83.3°F28.5°C 64.4°F18.0°C 53% 3.8 mph WSW6.1 kmh WSW 8.3 mph13.4 kmh 29.82 in1009.8 mb 0.00 in0.0 mm 0.00 in0.0 mm 0.00 in0.0 mm
05:20 PM 85.1°F29.5°C 62.7°F17.1°C 47% 2.2 mph SE3.5 kmh SE 7.6 mph12.2 kmh 29.82 in1009.8 mb 0.00 in0.0 mm 0.00 in0.0 mm 0.00 in0.0 mm
05:30 PM 86.7°F30.4°C 62.3°F16.8°C 44% 3.1 mph S5.0 kmh S 6.9 mph11.1 kmh 29.82 in1009.8 mb 0.00 in0.0 mm 0.00 in0.0 mm 0.00 in0.0 mm
05:40 PM 88.2°F31.2°C 62.9°F17.2°C 43% 2.2 mph WSW3.5 kmh WSW 7.6 mph12.2 kmh 29.82 in1009.8 mb 0.00 in0.0 mm 0.00 in0.0 mm 0.00 in0.0 mm
05:50 PM 88.9°F31.6°C 62.2°F16.8°C 41% 3.8 mph WSW6.1 kmh WSW 6.9 mph11.1 kmh 29.83 in1010.2 mb 0.00 in0.0 mm 0.00 in0.0 mm 0.00 in0.0 mm
06:00 PM 88.0°F31.1°C 63.4°F17.4°C 44% 2.2 mph E3.5 kmh E 4.5 mph7.2 kmh 29.83 in1010.2 mb 0.00 in0.0 mm 0.00 in0.0 mm 0.00 in0.0 mm
06:10 PM 88.7°F31.5°C 62.7°F17.1°C 42% 1.6 mph ENE2.6 kmh ENE 4.5 mph7.2 kmh 29.83 in1010.2 mb 0.00 in0.0 mm 0.00 in0.0 mm 0.00 in0.0 mm
06:20 PM 88.7°F31.5°C 62.7°F17.1°C 42% 1.6 mph ESE2.6 kmh ESE 3.1 mph5.0 kmh 29.83 in1010.2 mb 0.00 in0.0 mm 0.00 in0.0 mm 0.00 in0.0 mm
06:30 PM 91.0°F32.8°C 62.7°F17.1°C 39% Calm Calm 3.1 mph5.0 kmh 29.83 in1010.2 mb 0.00 in0.0 mm 0.00 in0.0 mm 0.00 in0.0 mm
06:40 PM 91.6°F33.1°C 61.7°F16.5°C 37% 0.7 mph SW1.1 kmh SW 3.8 mph6.1 kmh 29.84 in1010.5 mb 0.00 in0.0 mm 0.00 in0.0 mm 0.00 in0.0 mm
06:50 PM 91.8°F33.2°C 61.8°F16.6°C 37% Calm Calm 1.6 mph2.6 kmh 29.84 in1010.5 mb 0.00 in0.0 mm 0.00 in0.0 mm 0.00 in0.0 mm
07:00 PM 88.7°F31.5°C 59.9°F15.5°C 38% 2.2 mph WNW3.5 kmh WNW 3.1 mph5.0 kmh 29.84 in1010.5 mb 0.00 in0.0 mm 0.00 in0.0 mm 0.00 in0.0 mm
07:10 PM 85.8°F29.9°C 61.4°F16.3°C 44% 1.6 mph WNW2.6 kmh WNW 7.6 mph12.2 kmh 29.85 in1010.8 mb 0.00 in0.0 mm 0.00 in0.0 mm 0.00 in0.0 mm
07:20 PM 83.5°F28.6°C 59.3°F15.2°C 44% 0.7 mph NW1.1 kmh NW 4.5 mph7.2 kmh 29.85 in1010.8 mb 0.00 in0.0 mm 0.00 in0.0 mm 0.00 in0.0 mm
07:30 PM 81.5°F27.5°C 55.6°F13.1°C 41% 1.6 mph W2.6 kmh W 6.0 mph9.7 kmh 29.85 in1010.8 mb 0.00 in0.0 mm 0.00 in0.0 mm 0.00 in0.0 mm
07:40 PM 82.0°F27.8°C 54.7°F12.6°C 39% 1.6 mph W2.6 kmh W 7.6 mph12.2 kmh 29.85 in1010.8 mb 0.00 in0.0 mm 0.00 in0.0 mm 0.00 in0.0 mm
07:50 PM 81.3°F27.4°C 53.3°F11.8°C 38% 0.7 mph W1.1 kmh W 6.0 mph9.7 kmh 29.86 in1011.2 mb 0.00 in0.0 mm 0.00 in0.0 mm 0.00 in0.0 mm
08:00 PM 81.1°F27.3°C 53.2°F11.8°C 38% 0.7 mph W1.1 kmh W 5.4 mph8.7 kmh 29.86 in1011.2 mb 0.00 in0.0 mm 0.00 in0.0 mm 0.00 in0.0 mm
08:10 PM 80.4°F26.9°C 55.3°F12.9°C 42% 2.2 mph WNW3.5 kmh WNW 5.4 mph8.7 kmh 29.86 in1011.2 mb 0.00 in0.0 mm 0.00 in0.0 mm 0.00 in0.0 mm
08:20 PM 79.5°F26.4°C 54.5°F12.5°C 42% 1.6 mph WNW2.6 kmh WNW 6.9 mph11.1 kmh 29.86 in1011.2 mb 0.00 in0.0 mm 0.00 in0.0 mm 0.00 in0.0 mm
08:30 PM 79.2°F26.2°C 54.1°F12.3°C 42% 3.1 mph NW5.0 kmh NW 5.4 mph8.7 kmh 29.86 in1011.2 mb 0.00 in0.0 mm 0.00 in0.0 mm 0.00 in0.0 mm
08:40 PM 80.1°F26.7°C 50.7°F10.4°C 36% 4.5 mph NW7.2 kmh NW 9.8 mph15.8 kmh 29.86 in1011.2 mb 0.00 in0.0 mm 0.00 in0.0 mm 0.00 in0.0 mm
08:50 PM 80.6°F27.0°C 48.9°F9.4°C 33% 3.1 mph NW5.0 kmh NW 9.2 mph14.8 kmh 29.87 in1011.5 mb 0.00 in0.0 mm 0.00 in0.0 mm 0.00 in0.0 mm
09:00 PM 81.3°F27.4°C 45.1°F7.3°C 28% 2.2 mph WSW3.5 kmh WSW 7.6 mph12.2 kmh 29.87 in1011.5 mb 0.00 in0.0 mm 0.00 in0.0 mm 0.00 in0.0 mm
09:10 PM 81.3°F27.4°C 44.2°F6.8°C 27% 6.0 mph WSW9.7 kmh WSW 9.2 mph14.8 kmh 29.88 in1011.9 mb 0.00 in0.0 mm 0.00 in0.0 mm 0.00 in0.0 mm
09:20 PM 81.3°F27.4°C 43.2°F6.2°C 26% 5.4 mph WSW8.7 kmh WSW 8.3 mph13.4 kmh 29.88 in1011.9 mb 0.00 in0.0 mm 0.00 in0.0 mm 0.00 in0.0 mm
09:30 PM 81.3°F27.4°C 42.2°F5.7°C 25% 4.5 mph WSW7.2 kmh WSW 15.2 mph24.5 kmh 29.88 in1011.9 mb 0.00 in0.0 mm 0.00 in0.0 mm 0.00 in0.0 mm
09:40 PM 81.1°F27.3°C 42.0°F5.6°C 25% 3.8 mph W6.1 kmh W 10.7 mph17.2 kmh 29.88 in1011.9 mb 0.00 in0.0 mm 0.00 in0.0 mm 0.00 in0.0 mm
09:50 PM 80.8°F27.1°C 41.7°F5.4°C 25% 5.4 mph W8.7 kmh W 12.1 mph19.5 kmh 29.88 in1011.9 mb 0.00 in0.0 mm 0.00 in0.0 mm 0.00 in0.0 mm
10:00 PM 80.6°F27.0°C 40.5°F4.7°C 24% 3.1 mph W5.0 kmh W 9.8 mph15.8 kmh 29.89 in1012.2 mb 0.00 in0.0 mm 0.00 in0.0 mm 0.00 in0.0 mm
10:10 PM 80.4°F26.9°C 42.4°F5.8°C 26% 3.8 mph W6.1 kmh W 8.3 mph13.4 kmh 29.89 in1012.2 mb 0.00 in0.0 mm 0.00 in0.0 mm 0.00 in0.0 mm
10:20 PM 79.7°F26.5°C 42.8°F6.0°C 27% 2.2 mph NW3.5 kmh NW 6.9 mph11.1 kmh 29.89 in1012.2 mb 0.00 in0.0 mm 0.00 in0.0 mm 0.00 in0.0 mm
10:30 PM 77.9°F25.5°C 47.3°F8.5°C 34% 2.2 mph N3.5 kmh N 4.5 mph7.2 kmh 29.89 in1012.2 mb 0.00 in0.0 mm 0.00 in0.0 mm 0.00 in0.0 mm
10:40 PM 76.1°F24.5°C 47.2°F8.4°C 36% 2.2 mph N3.5 kmh N 4.5 mph7.2 kmh 29.89 in1012.2 mb 0.00 in0.0 mm 0.00 in0.0 mm 0.00 in0.0 mm
10:50 PM 75.0°F23.9°C 48.4°F9.1°C 39% 3.1 mph N5.0 kmh N 4.5 mph7.2 kmh 29.89 in1012.2 mb 0.00 in0.0 mm 0.00 in0.0 mm 0.00 in0.0 mm
11:00 PM 74.3°F23.5°C 50.4°F10.2°C 43% 2.2 mph ENE3.5 kmh ENE 3.8 mph6.1 kmh 29.89 in1012.2 mb 0.00 in0.0 mm 0.00 in0.0 mm 0.00 in0.0 mm
11:10 PM 74.1°F23.4°C 50.2°F10.1°C 43% 3.1 mph NE5.0 kmh NE 6.0 mph9.7 kmh 29.89 in1012.2 mb 0.00 in0.0 mm 0.00 in0.0 mm 0.00 in0.0 mm
11:20 PM 74.1°F23.4°C 50.2°F10.1°C 43% 4.5 mph NE7.2 kmh NE 6.9 mph11.1 kmh 29.88 in1011.9 mb 0.00 in0.0 mm 0.00 in0.0 mm 0.00 in0.0 mm
11:30 PM 74.1°F23.4°C 50.8°F10.4°C 44% 4.5 mph NE7.2 kmh NE 7.6 mph12.2 kmh 29.89 in1012.2 mb 0.00 in0.0 mm 0.00 in0.0 mm 0.00 in0.0 mm
11:40 PM 74.5°F23.6°C 51.8°F11.0°C 45% 4.5 mph NE7.2 kmh NE 8.3 mph13.4 kmh 29.89 in1012.2 mb 0.00 in0.0 mm 0.00 in0.0 mm 0.00 in0.0 mm
11:50 PM 73.6°F23.1°C 51.0°F10.6°C 45% Calm Calm 6.9 mph11.1 kmh 29.88 in1011.9 mb 0.00 in0.0 mm 0.00 in0.0 mm 0.00 in0.0 mm